Aérodrome :
LOGIN :

S'inscrire | Disclaimer

   EN    FR    IT 

 










Légende :    VFR   VFR Marginal   IFR   IFR Intensif   IFR Très Intensif
Visi : 
Plafond : 
>= 8 km
>= 3000ft
5 à 8 km
1000 à 3000 ft
1500m à 5 km
500 à 1000 ft
800 à 1500m
200 à 500 ft
< 800m
< 200 ft
Symboles :   Orages  Brouillard  Fortes neiges  Fortes précipitations  Vent > 20 kt
SIGMETs :   Divers  Orages  Givrage  Turbulence  Onde Orograph.  Cendres Volcan.






- Altitude de l'aérodrome : 359 ft
- Code IATA : DEB


LHDC - Debrecen

DERNIER METAR :
  • 072215Z AUTO VRB02KT 0350 FG VV001 01/01 Q1019 NOSIG

METARs EXPIRÉS :
  • 072145Z AUTO 18002KT 0350 FG VV001 01/01 Q1019 NOSIG
  • 072115Z AUTO 22003KT 0350 FG VV001 01/01 Q1019 NOSIG
  • 072045Z AUTO VRB01KT 0350 FG VV001 01/01 Q1019 NOSIG
  • 072029Z AUTO VRB03KT 0400 FG VV002 01/01 Q1019
  • 072015Z AUTO 24003KT 210V270 0400 FG VV001 01/01 Q1019 NOSIG
  • 071945Z AUTO 23003KT 190V280 0400 FG VV002 01/01 Q1019 NOSIG

TAF TAF LHDC
Valide du 07 à 21h jusqu'au 08 à 06h UTC


072015Z 0721/0806 21004KT 0400 FG OVC002
TEMPO 0721/0801 0100 FG DZ VV001
TEMPO 0801/0806 0100 FZFG FZDZ VV001



MET'MAP, la Météo Aéronautique d'un coup d'oeil ! - Copyright ORBIFLY Décembre 2007 - Disclaimer

ORBIFLY MET'MAP TEAM :

Programmation & Développement : Alexandra Zaïnal
Sur une idée originale de : Baudouin d'Aumeries
Assistance à la programmation : Marc-Olivier Méhu
Soutien technique & logistique : Manuel Goepfert

Contact : metmap@orbifly.com




SOURCES & CREDITS :

   NOAA